Impacts METAR Board INFO
IDs:

KSTL - St Louis/Lambert Int, MO, US

Updated at: 1209 UTC 19 Nov 2017
Potential Impact None Slight Moderate High
Time19/00Z 19/01Z 19/02Z 19/03Z 19/04Z 19/05Z 19/06Z 19/07Z 19/08Z 19/09Z 19/10Z 19/11Z 19/12Z
VIS10 10 10 10 10 10 10 10 10 10 10 10 10
CIG-- -- -- -- -- -- -- -- -- -- -- -- --
CoverFEWFEWCLRCLRCLRFEWCLRCLRCLRSCTFEWFEWFEW
FltCatVFRVFRVFRVFRVFRVFRVFRVFRVFRVFRVFRVFRVFR
WX--------------------------
WDir300290300300310310310320310310310300310
WSpd11 10 10 12 13 20 12 20 9 7 11 10 7
WGst19 -- -- 21 22 27 23 25 -- -- -- -- --
Raw hourly METARs
KSTL 182351Z 30011G19KT 10SM FEW018 FEW027 06/03 A2987 RMK AO2 SLP113 60024 T00610028 10078 20044 53047 $
KSTL 190051Z 29010KT 10SM FEW200 05/02 A2991 RMK AO2 SLP127 T00500017 $
KSTL 190151Z 30010KT 10SM CLR 06/01 A2994 RMK AO2 SLP136 T00560011 $
KSTL 190251Z 30012G21KT 10SM CLR 05/01 A2997 RMK AO2 SLP147 T00500006 51035 $
KSTL 190351Z 31013G22KT 10SM CLR 05/00 A3000 RMK AO2 SLP160 T00500000 $
KSTL 190451Z 31020G27KT 10SM FEW025 04/M02 A3002 RMK AO2 PK WND 31029/0420 SLP171 T00441017 $
KSTL 190551Z 31012G23KT 10SM CLR 03/M03 A3007 RMK AO2 SLP186 T00331028 10061 20033 402220033 53031 $
KSTL 190651Z 32020G25KT 10SM CLR 03/M05 A3008 RMK AO2 PK WND 31032/0612 SLP190 T00281050 $
KSTL 190751Z 31009KT 10SM CLR 02/M05 A3009 RMK AO2 SLP196 T00171050 $
KSTL 190851Z 31007KT 10SM SCT032 01/M04 A3011 RMK AO2 SLP205 T00111044 53015 $
KSTL 190951Z 31011KT 10SM FEW032 01/M05 A3011 RMK AO2 SLP202 T00061050 $
KSTL 191051Z 30010KT 10SM FEW032 00/M06 A3013 RMK AO2 SLP211 T00001056 $
KSTL 191151Z COR 31007KT 10SM FEW035 M01/M06 A3014 RMK AO2 SLP212 70024 T10061061 10033 21006 53007 $